KGLR/GLR METAR and TAF weather

Enter ICAO airport designator
Station Type Date Time Source
KGLR METAR 2020/07/14 05:53 UTC NOAA

KGLR 140553Z AUTO 00000KT 10SM CLR 14/12 A3003 RMK AO2 SLP168 T01390117 10228 20122 53004


Station Type Date Time Source
KGLR Decoded METAR 2020/07/14 05:53 UTC NOAA

GAYLORD REGIONAL AIRPORT, MI, United States (KGLR) 45-01N 84-41W 407M
Jul 14, 2020 - 01:53 AM EDT / 2020.07.14 0553 UTC
Wind: Calm:0
Visibility: 10 mile(s):0
Sky conditions: clear
Temperature: 57.0 F (13.9 C)
Dew Point: 53.1 F (11.7 C)
Relative Humidity: 86%
Pressure (altimeter): 30.03 in. Hg (1016 hPa)
Pressure tendency: 0.01 inches (0.4 hPa) higher than three hours ago
ob: KGLR 140553Z AUTO 00000KT 10SM CLR 14/12 A3003 RMK AO2 SLP168 T01390117 10228 20122 53004
cycle: 6

Station Type Date Time Source
KGLR TAF UTC NOAA

Error!

Example: see airport list